createdAt,value
2019-01-29T17:10:09.116Z,13.22
2019-01-29T17:12:37.318Z,11.13
2019-01-29T17:15:17.195Z,16.13
2019-01-29T17:17:45.409Z,12.73
2019-01-29T17:20:22.048Z,12.00
2019-01-29T17:22:50.257Z,12.87
2019-01-29T17:25:18.526Z,16.77
2019-01-29T17:27:46.752Z,14.50
2019-01-29T17:30:27.039Z,12.17
2019-01-29T17:32:55.257Z,12.80
2019-01-29T17:35:23.485Z,11.67
2019-01-29T17:37:51.718Z,12.13
2019-01-29T17:40:21.365Z,10.17
2019-01-29T17:42:49.610Z,14.13
2019-01-29T17:45:21.090Z,10.83
2019-01-29T17:47:49.315Z,8.80
2019-01-29T17:50:20.647Z,8.40
2019-01-29T17:52:48.887Z,10.23
2019-01-29T17:55:17.632Z,10.90
2019-01-29T17:57:50.756Z,9.50
2019-01-29T18:00:19.058Z,9.13
2019-01-29T18:02:47.301Z,8.47
2019-01-29T18:05:15.515Z,7.43
2019-01-29T18:07:43.735Z,6.67
2019-01-29T18:10:14.879Z,7.50
2019-01-29T18:12:43.102Z,5.50
2019-01-29T18:15:14.891Z,5.43
2019-01-29T18:17:43.107Z,5.20
2019-01-29T18:20:11.412Z,4.80
2019-01-29T18:22:39.690Z,4.80
2019-01-29T18:25:10.378Z,5.20
2019-01-29T18:27:38.585Z,3.70
2019-01-29T18:30:10.059Z,3.67
2019-01-29T18:32:38.298Z,2.93
2019-01-29T18:35:08.266Z,3.23
2019-01-29T18:37:36.513Z,3.20
2019-01-29T18:40:07.976Z,2.80
2019-01-29T18:42:36.170Z,3.03
2019-01-29T18:45:06.145Z,2.93
2019-01-29T18:47:34.354Z,3.10
2019-01-29T18:50:02.557Z,2.60
2019-01-29T18:52:30.779Z,2.87
2019-01-29T18:54:58.975Z,3.40
2019-01-29T18:57:27.202Z,3.93
2019-01-29T18:59:55.404Z,4.43
2019-01-29T19:02:23.730Z,4.83
2019-01-29T19:04:51.904Z,4.23
2019-01-29T19:07:20.131Z,4.20
2019-01-29T19:09:48.324Z,3.80
2019-01-29T19:12:16.613Z,3.93
2019-01-29T19:14:44.859Z,3.63
2019-01-29T19:17:13.060Z,3.47
2019-01-29T19:19:41.279Z,3.00
2019-01-29T19:22:09.478Z,2.63
2019-01-29T19:24:37.713Z,2.83
2019-01-29T19:27:05.930Z,2.90
2019-01-29T19:29:34.171Z,2.40
2019-01-29T19:32:02.452Z,3.15
2019-01-29T19:34:30.694Z,2.63
2019-01-29T19:36:58.921Z,2.57
2019-01-29T19:39:27.138Z,3.47
2019-01-29T19:41:55.386Z,3.93
2019-01-29T19:44:23.577Z,3.60
2019-01-29T19:46:51.801Z,4.07
2019-01-29T19:49:20.027Z,3.43
2019-01-29T19:51:49.096Z,3.40
2019-01-29T19:54:17.411Z,3.33
2019-01-29T19:56:45.657Z,3.20
2019-01-29T19:59:13.851Z,3.47
2019-01-29T20:01:42.082Z,3.77
2019-01-29T20:04:10.323Z,3.60
2019-01-29T20:06:38.529Z,2.87
2019-01-29T20:09:09.413Z,3.10
2019-01-29T20:11:37.623Z,3.20
2019-01-29T20:14:05.934Z,3.47
2019-01-29T20:16:34.150Z,3.13
2019-01-29T20:19:02.387Z,4.13
2019-01-29T20:21:30.615Z,3.13
2019-01-29T20:23:58.865Z,2.93
2019-01-29T20:26:27.081Z,2.50
2019-01-29T20:28:55.317Z,2.73
2019-01-29T20:31:23.551Z,2.60
2019-01-29T20:33:51.772Z,2.93
2019-01-29T20:36:19.995Z,2.80
2019-01-29T20:38:48.274Z,3.10
2019-01-29T20:41:16.488Z,2.47
2019-01-29T20:43:44.691Z,2.30
2019-01-29T20:46:12.919Z,2.17
2019-01-29T20:48:41.125Z,2.40
2019-01-29T20:51:09.341Z,2.77
2019-01-29T20:53:37.537Z,2.37
2019-01-29T20:56:05.781Z,3.27
2019-01-29T20:58:34.002Z,3.20
2019-01-29T21:01:02.228Z,1.80
2019-01-29T21:03:30.430Z,2.30
2019-01-29T21:05:58.724Z,1.90
2019-01-29T21:08:26.914Z,1.97
2019-01-29T21:10:55.135Z,2.23
2019-01-29T21:13:23.358Z,2.33
2019-01-29T21:15:51.577Z,2.10
2019-01-29T21:18:19.789Z,2.57
2019-01-29T21:20:56.896Z,2.13
2019-01-29T21:23:17.935Z,3.00
2019-01-29T21:25:46.136Z,2.07
2019-01-29T21:28:14.366Z,2.33
2019-01-29T21:30:44.031Z,2.13
2019-01-29T21:33:12.385Z,2.03
2019-01-29T21:35:40.596Z,2.20
2019-01-29T21:38:08.796Z,2.40
2019-01-29T21:40:37.038Z,2.07
2019-01-29T21:43:05.227Z,1.80
2019-01-29T21:45:33.477Z,2.03
2019-01-29T21:48:01.737Z,2.40
2019-01-29T21:50:34.336Z,1.77
2019-01-29T21:53:02.547Z,1.60
2019-01-29T21:55:30.868Z,2.00
2019-01-29T21:57:59.496Z,1.90
2019-01-29T22:00:30.332Z,2.17
2019-01-29T22:02:58.561Z,2.37
2019-01-29T22:05:26.770Z,1.97
2019-01-29T22:07:57.499Z,2.20
2019-01-29T22:10:24.959Z,1.77
2019-01-29T22:12:53.160Z,1.67
2019-01-29T22:15:23.756Z,2.33
2019-01-29T22:17:51.984Z,2.20
2019-01-29T22:20:21.610Z,1.97
2019-01-29T22:22:49.818Z,1.67
2019-01-29T22:25:22.317Z,2.40
2019-01-29T22:27:50.502Z,2.33
2019-01-29T22:30:34.040Z,2.23
2019-01-29T22:33:02.231Z,2.00
2019-01-29T22:35:30.474Z,2.20
2019-01-29T22:37:58.713Z,2.03
2019-01-29T22:40:29.580Z,2.00
2019-01-29T22:42:57.960Z,2.20
2019-01-29T22:45:26.180Z,2.60
2019-01-29T22:47:54.406Z,2.20
2019-01-29T22:50:30.882Z,2.83
2019-01-29T22:52:59.116Z,1.90
2019-01-29T22:55:27.328Z,2.10
2019-01-29T22:57:55.537Z,1.90
2019-01-29T23:00:51.119Z,2.20
2019-01-29T23:03:25.595Z,1.97
2019-01-29T23:05:59.628Z,2.20
2019-01-29T23:08:27.858Z,2.10
2019-01-29T23:10:57.465Z,1.93
2019-01-29T23:13:25.755Z,2.43
2019-01-29T23:15:53.962Z,2.40
2019-01-29T23:18:22.188Z,1.80
2019-01-29T23:20:50.415Z,2.00
2019-01-29T23:23:18.627Z,2.13
2019-01-29T23:25:46.830Z,2.53
2019-01-29T23:28:15.052Z,2.03
2019-01-29T23:30:43.246Z,1.70
2019-01-29T23:33:11.475Z,1.60
2019-01-29T23:35:39.672Z,2.00
2019-01-29T23:38:07.881Z,1.83
2019-01-29T23:40:36.109Z,2.03
2019-01-29T23:43:04.310Z,1.93
2019-01-29T23:45:32.500Z,1.70
2019-01-29T23:48:00.703Z,2.20
2019-01-29T23:50:29.636Z,1.70
2019-01-29T23:52:57.852Z,1.77
2019-01-29T23:55:26.536Z,2.03
2019-01-29T23:57:54.732Z,2.10
